sensor_id;sensor_type;location;lat;lon;timestamp;temperature;humidity
20811;DHT22;10566;52.928;10.522;2022-12-29T05:06:46;8.90;99.90
20811;DHT22;10566;52.928;10.522;2022-12-29T05:09:12;8.90;99.90
20811;DHT22;10566;52.928;10.522;2022-12-29T05:11:38;9.00;99.90
20811;DHT22;10566;52.928;10.522;2022-12-29T05:14:03;9.00;99.90
20811;DHT22;10566;52.928;10.522;2022-12-29T05:16:29;9.00;99.90
20811;DHT22;10566;52.928;10.522;2022-12-29T05:18:54;9.00;99.90
20811;DHT22;10566;52.928;10.522;2022-12-29T05:21:20;9.00;99.90
20811;DHT22;10566;52.928;10.522;2022-12-29T05:23:45;9.10;99.90
20811;DHT22;10566;52.928;10.522;2022-12-29T05:26:11;9.00;99.90
20811;DHT22;10566;52.928;10.522;2022-12-29T05:28:36;9.10;99.90
20811;DHT22;10566;52.928;10.522;2022-12-29T05:31:02;9.20;99.90
20811;DHT22;10566;52.928;10.522;2022-12-29T05:33:27;9.20;99.90
20811;DHT22;10566;52.928;10.522;2022-12-29T05:35:53;9.20;99.90
20811;DHT22;10566;52.928;10.522;2022-12-29T05:38:18;9.30;99.90
20811;DHT22;10566;52.928;10.522;2022-12-29T05:40:44;9.30;99.90
20811;DHT22;10566;52.928;10.522;2022-12-29T05:43:10;9.30;99.90
20811;DHT22;10566;52.928;10.522;2022-12-29T05:45:36;9.30;99.90
20811;DHT22;10566;52.928;10.522;2022-12-29T05:48:02;9.40;99.90
20811;DHT22;10566;52.928;10.522;2022-12-29T05:50:28;9.50;99.90
20811;DHT22;10566;52.928;10.522;2022-12-29T05:52:54;9.50;99.90
20811;DHT22;10566;52.928;10.522;2022-12-29T05:55:19;9.50;99.90
20811;DHT22;10566;52.928;10.522;2022-12-29T05:57:45;9.60;99.90
20811;DHT22;10566;52.928;10.522;2022-12-29T06:00:11;9.60;99.90
20811;DHT22;10566;52.928;10.522;2022-12-29T06:02:36;9.70;99.90
20811;DHT22;10566;52.928;10.522;2022-12-29T06:05:02;9.60;99.90
20811;DHT22;10566;52.928;10.522;2022-12-29T06:07:28;9.50;99.90
20811;DHT22;10566;52.928;10.522;2022-12-29T06:09:53;9.50;99.90
20811;DHT22;10566;52.928;10.522;2022-12-29T06:12:19;9.20;99.90
20811;DHT22;10566;52.928;10.522;2022-12-29T06:14:44;9.70;99.90
20811;DHT22;10566;52.928;10.522;2022-12-29T06:17:10;10.70;99.90
20811;DHT22;10566;52.928;10.522;2022-12-29T06:19:35;9.80;99.90
20811;DHT22;10566;52.928;10.522;2022-12-29T06:22:01;9.80;99.90
20811;DHT22;10566;52.928;10.522;2022-12-29T06:24:27;9.80;99.90
20811;DHT22;10566;52.928;10.522;2022-12-29T06:43:57;10.40;99.90
20811;DHT22;10566;52.928;10.522;2022-12-29T06:46:22;10.40;99.90
20811;DHT22;10566;52.928;10.522;2022-12-29T06:48:48;10.30;99.90
20811;DHT22;10566;52.928;10.522;2022-12-29T06:51:13;10.40;99.90
20811;DHT22;10566;52.928;10.522;2022-12-29T06:53:39;10.50;99.90
20811;DHT22;10566;52.928;10.522;2022-12-29T06:56:04;10.50;99.90
20811;DHT22;10566;52.928;10.522;2022-12-29T06:58:30;10.40;99.90
20811;DHT22;10566;52.928;10.522;2022-12-29T07:00:56;10.50;99.90
20811;DHT22;10566;52.928;10.522;2022-12-29T07:03:21;10.50;99.90
20811;DHT22;10566;52.928;10.522;2022-12-29T07:05:47;10.40;99.90
20811;DHT22;10566;52.928;10.522;2022-12-29T07:08:12;10.40;99.90
20811;DHT22;10566;52.928;10.522;2022-12-29T07:10:38;10.20;99.90
20811;DHT22;10566;52.928;10.522;2022-12-29T07:13:04;10.20;99.90
20811;DHT22;10566;52.928;10.522;2022-12-29T07:15:29;10.00;99.90
20811;DHT22;10566;52.928;10.522;2022-12-29T07:17:55;9.90;99.90
20811;DHT22;10566;52.928;10.522;2022-12-29T07:20:21;9.90;99.90
20811;DHT22;10566;52.928;10.522;2022-12-29T07:22:46;9.80;99.90
20811;DHT22;10566;52.928;10.522;2022-12-29T07:25:12;9.80;99.90
20811;DHT22;10566;52.928;10.522;2022-12-29T07:27:38;9.80;99.90
20811;DHT22;10566;52.928;10.522;2022-12-29T07:30:04;9.70;99.90
20811;DHT22;10566;52.928;10.522;2022-12-29T07:34:58;9.70;99.90
20811;DHT22;10566;52.928;10.522;2022-12-29T07:37:23;9.60;99.90
20811;DHT22;10566;52.928;10.522;2022-12-29T07:39:49;9.60;99.90
20811;DHT22;10566;52.928;10.522;2022-12-29T07:42:14;9.50;99.90
20811;DHT22;10566;52.928;10.522;2022-12-29T07:44:40;9.00;99.90
20811;DHT22;10566;52.928;10.522;2022-12-29T07:47:06;9.00;99.90
20811;DHT22;10566;52.928;10.522;2022-12-29T07:49:31;9.10;99.90
20811;DHT22;10566;52.928;10.522;2022-12-29T07:51:57;9.00;99.90
20811;DHT22;10566;52.928;10.522;2022-12-29T07:54:22;9.00;99.90
20811;DHT22;10566;52.928;10.522;2022-12-29T07:56:48;9.00;99.90
20811;DHT22;10566;52.928;10.522;2022-12-29T07:59:14;9.00;99.90
20811;DHT22;10566;52.928;10.522;2022-12-29T08:01:39;9.00;99.90
20811;DHT22;10566;52.928;10.522;2022-12-29T08:04:05;8.90;99.90
20811;DHT22;10566;52.928;10.522;2022-12-29T08:06:31;9.00;99.90
20811;DHT22;10566;52.928;10.522;2022-12-29T08:08:57;9.00;99.90
20811;DHT22;10566;52.928;10.522;2022-12-29T08:11:23;8.90;99.90
20811;DHT22;10566;52.928;10.522;2022-12-29T08:13:49;8.80;99.90
20811;DHT22;10566;52.928;10.522;2022-12-29T08:16:14;8.90;99.90
20811;DHT22;10566;52.928;10.522;2022-12-29T08:18:40;8.90;99.90
20811;DHT22;10566;52.928;10.522;2022-12-29T08:21:05;8.90;99.90
20811;DHT22;10566;52.928;10.522;2022-12-29T08:23:31;8.90;99.90
20811;DHT22;10566;52.928;10.522;2022-12-29T08:26:02;8.90;99.90
20811;DHT22;10566;52.928;10.522;2022-12-29T08:28:28;8.90;99.90
20811;DHT22;10566;52.928;10.522;2022-12-29T08:30:57;8.90;99.90
20811;DHT22;10566;52.928;10.522;2022-12-29T08:33:23;8.90;99.90
20811;DHT22;10566;52.928;10.522;2022-12-29T08:35:48;8.80;99.90
20811;DHT22;10566;52.928;10.522;2022-12-29T08:38:14;8.80;99.90
20811;DHT22;10566;52.928;10.522;2022-12-29T08:40:40;8.80;99.90
20811;DHT22;10566;52.928;10.522;2022-12-29T08:43:06;8.90;99.90
20811;DHT22;10566;52.928;10.522;2022-12-29T08:45:32;9.00;99.90
20811;DHT22;10566;52.928;10.522;2022-12-29T08:47:57;9.10;99.90
20811;DHT22;10566;52.928;10.522;2022-12-29T08:50:23;9.40;99.90
20811;DHT22;10566;52.928;10.522;2022-12-29T09:17:16;11.10;99.90
20811;DHT22;10566;52.928;10.522;2022-12-29T09:20:00;11.10;99.90
20811;DHT22;10566;52.928;10.522;2022-12-29T09:22:26;11.10;99.90
20811;DHT22;10566;52.928;10.522;2022-12-29T09:24:52;11.00;99.90
20811;DHT22;10566;52.928;10.522;2022-12-29T09:27:17;11.00;99.90
20811;DHT22;10566;52.928;10.522;2022-12-29T09:29:43;10.90;99.90
20811;DHT22;10566;52.928;10.522;2022-12-29T09:32:08;10.80;99.90
20811;DHT22;10566;52.928;10.522;2022-12-29T09:34:34;10.70;99.90
20811;DHT22;10566;52.928;10.522;2022-12-29T09:37:00;10.70;99.90
20811;DHT22;10566;52.928;10.522;2022-12-29T09:39:25;10.70;99.90
20811;DHT22;10566;52.928;10.522;2022-12-29T09:42:07;10.60;99.90
20811;DHT22;10566;52.928;10.522;2022-12-29T09:44:56;10.70;99.90
20811;DHT22;10566;52.928;10.522;2022-12-29T09:47:25;10.60;99.90
20811;DHT22;10566;52.928;10.522;2022-12-29T09:49:58;10.40;99.90
20811;DHT22;10566;52.928;10.522;2022-12-29T09:52:34;10.30;99.90
20811;DHT22;10566;52.928;10.522;2022-12-29T09:55:10;10.20;99.90
20811;DHT22;10566;52.928;10.522;2022-12-29T09:57:42;10.30;99.90
20811;DHT22;10566;52.928;10.522;2022-12-29T10:03:17;10.40;99.90
20811;DHT22;10566;52.928;10.522;2022-12-29T10:06:11;10.40;99.90
20811;DHT22;10566;52.928;10.522;2022-12-29T10:12:06;10.30;99.90
20811;DHT22;10566;52.928;10.522;2022-12-29T10:25:23;10.40;99.90
20811;DHT22;10566;52.928;10.522;2022-12-29T10:27:50;10.50;99.90
20811;DHT22;10566;52.928;10.522;2022-12-29T10:30:18;10.60;99.90
20811;DHT22;10566;52.928;10.522;2022-12-29T10:32:58;10.50;99.90
20811;DHT22;10566;52.928;10.522;2022-12-29T10:35:32;10.60;99.90
20811;DHT22;10566;52.928;10.522;2022-12-29T10:40:59;10.50;99.90
20811;DHT22;10566;52.928;10.522;2022-12-29T10:43:43;10.50;99.90
20811;DHT22;10566;52.928;10.522;2022-12-29T10:46:13;10.50;99.90
20811;DHT22;10566;52.928;10.522;2022-12-29T10:48:39;10.50;99.90
20811;DHT22;10566;52.928;10.522;2022-12-29T10:51:06;10.50;99.90
20811;DHT22;10566;52.928;10.522;2022-12-29T10:53:45;10.50;99.90
20811;DHT22;10566;52.928;10.522;2022-12-29T10:56:50;10.50;99.90
20811;DHT22;10566;52.928;10.522;2022-12-29T10:59:26;10.50;99.90
20811;DHT22;10566;52.928;10.522;2022-12-29T11:07:17;10.50;99.90
20811;DHT22;10566;52.928;10.522;2022-12-29T11:09:45;10.60;99.90
20811;DHT22;10566;52.928;10.522;2022-12-29T11:14:43;10.60;99.90
20811;DHT22;10566;52.928;10.522;2022-12-29T11:17:15;10.60;99.90
20811;DHT22;10566;52.928;10.522;2022-12-29T11:19:41;10.70;99.90
20811;DHT22;10566;52.928;10.522;2022-12-29T11:22:14;10.70;99.90
20811;DHT22;10566;52.928;10.522;2022-12-29T11:24:45;10.70;99.90
20811;DHT22;10566;52.928;10.522;2022-12-29T11:29:46;10.80;99.90
20811;DHT22;10566;52.928;10.522;2022-12-29T11:32:23;10.80;99.90
20811;DHT22;10566;52.928;10.522;2022-12-29T11:34:49;10.80;99.90
20811;DHT22;10566;52.928;10.522;2022-12-29T11:37:29;10.90;99.90
20811;DHT22;10566;52.928;10.522;2022-12-29T11:39:58;10.80;99.90
20811;DHT22;10566;52.928;10.522;2022-12-29T11:42:36;10.90;99.90
20811;DHT22;10566;52.928;10.522;2022-12-29T11:45:06;10.90;99.90
20811;DHT22;10566;52.928;10.522;2022-12-29T11:47:32;10.90;99.90
20811;DHT22;10566;52.928;10.522;2022-12-29T11:50:04;11.00;99.90
20811;DHT22;10566;52.928;10.522;2022-12-29T11:52:35;11.00;99.90
20811;DHT22;10566;52.928;10.522;2022-12-29T11:55:05;11.00;99.90
20811;DHT22;10566;52.928;10.522;2022-12-29T11:57:33;11.00;99.90
20811;DHT22;10566;52.928;10.522;2022-12-29T12:00:03;11.10;99.90
20811;DHT22;10566;52.928;10.522;2022-12-29T12:02:45;11.10;99.90
20811;DHT22;10566;52.928;10.522;2022-12-29T12:07:49;11.20;99.90
20811;DHT22;10566;52.928;10.522;2022-12-29T12:10:34;11.20;99.90
20811;DHT22;10566;52.928;10.522;2022-12-29T12:13:14;11.30;99.90
20811;DHT22;10566;52.928;10.522;2022-12-29T12:15:59;11.30;99.90
20811;DHT22;10566;52.928;10.522;2022-12-29T12:19:00;11.10;99.90
20811;DHT22;10566;52.928;10.522;2022-12-29T12:21:41;11.10;99.90
20811;DHT22;10566;52.928;10.522;2022-12-29T12:29:20;11.10;99.90
20811;DHT22;10566;52.928;10.522;2022-12-29T12:31:54;11.10;99.90
20811;DHT22;10566;52.928;10.522;2022-12-29T12:34:22;11.00;99.90
20811;DHT22;10566;52.928;10.522;2022-12-29T12:37:23;11.00;99.90
20811;DHT22;10566;52.928;10.522;2022-12-29T12:53:46;10.90;99.90
20811;DHT22;10566;52.928;10.522;2022-12-29T13:10:09;10.80;99.90
20811;DHT22;10566;52.928;10.522;2022-12-29T13:24:02;10.80;99.90
20811;DHT22;10566;52.928;10.522;2022-12-29T13:26:42;10.70;99.90
20811;DHT22;10566;52.928;10.522;2022-12-29T13:29:30;10.70;99.90
20811;DHT22;10566;52.928;10.522;2022-12-29T13:32:20;10.70;99.90
20811;DHT22;10566;52.928;10.522;2022-12-29T13:37:26;10.60;99.90
20811;DHT22;10566;52.928;10.522;2022-12-29T13:40:01;10.60;99.90
20811;DHT22;10566;52.928;10.522;2022-12-29T13:42:28;10.60;99.90
20811;DHT22;10566;52.928;10.522;2022-12-29T13:45:01;10.60;99.90
20811;DHT22;10566;52.928;10.522;2022-12-29T13:47:44;10.60;99.90
20811;DHT22;10566;52.928;10.522;2022-12-29T13:50:18;10.60;99.90
20811;DHT22;10566;52.928;10.522;2022-12-29T13:55:53;10.50;99.90
20811;DHT22;10566;52.928;10.522;2022-12-29T14:01:07;10.50;99.90
20811;DHT22;10566;52.928;10.522;2022-12-29T14:03:54;10.50;99.90
20811;DHT22;10566;52.928;10.522;2022-12-29T14:06:31;10.50;99.90
20811;DHT22;10566;52.928;10.522;2022-12-29T14:09:01;10.50;99.90
20811;DHT22;10566;52.928;10.522;2022-12-29T14:11:37;10.40;99.90
20811;DHT22;10566;52.928;10.522;2022-12-29T14:14:22;10.40;99.90
20811;DHT22;10566;52.928;10.522;2022-12-29T14:16:48;10.40;99.90
20811;DHT22;10566;52.928;10.522;2022-12-29T14:19:21;10.40;99.90
20811;DHT22;10566;52.928;10.522;2022-12-29T14:22:16;10.50;99.90
20811;DHT22;10566;52.928;10.522;2022-12-29T14:24:47;10.40;99.90
20811;DHT22;10566;52.928;10.522;2022-12-29T14:34:55;10.30;99.90
20811;DHT22;10566;52.928;10.522;2022-12-29T14:37:25;10.40;99.90
20811;DHT22;10566;52.928;10.522;2022-12-29T14:40:17;10.30;99.90
20811;DHT22;10566;52.928;10.522;2022-12-29T14:42:44;10.30;99.90
20811;DHT22;10566;52.928;10.522;2022-12-29T14:47:42;10.20;99.90
20811;DHT22;10566;52.928;10.522;2022-12-29T14:50:15;10.20;99.90
20811;DHT22;10566;52.928;10.522;2022-12-29T14:52:59;10.10;99.90
20811;DHT22;10566;52.928;10.522;2022-12-29T14:55:47;10.20;99.90
20811;DHT22;10566;52.928;10.522;2022-12-29T14:58:26;10.10;99.90
20811;DHT22;10566;52.928;10.522;2022-12-29T15:00:53;10.10;99.90
20811;DHT22;10566;52.928;10.522;2022-12-29T15:03:30;10.10;99.90
20811;DHT22;10566;52.928;10.522;2022-12-29T15:06:04;10.10;99.90
20811;DHT22;10566;52.928;10.522;2022-12-29T15:08:35;10.10;99.90
20811;DHT22;10566;52.928;10.522;2022-12-29T15:11:14;10.10;99.90
20811;DHT22;10566;52.928;10.522;2022-12-29T15:13:42;10.10;99.90
20811;DHT22;10566;52.928;10.522;2022-12-29T15:16:29;10.10;99.90
20811;DHT22;10566;52.928;10.522;2022-12-29T15:18:55;10.10;99.90
20811;DHT22;10566;52.928;10.522;2022-12-29T15:21:25;10.00;99.90
20811;DHT22;10566;52.928;10.522;2022-12-29T15:23:51;10.00;99.90
20811;DHT22;10566;52.928;10.522;2022-12-29T15:26:17;10.00;99.90
20811;DHT22;10566;52.928;10.522;2022-12-29T15:28:50;9.90;99.90
20811;DHT22;10566;52.928;10.522;2022-12-29T15:31:24;9.80;99.90
20811;DHT22;10566;52.928;10.522;2022-12-29T15:34:00;9.80;99.90
20811;DHT22;10566;52.928;10.522;2022-12-29T15:36:29;9.70;99.90
20811;DHT22;10566;52.928;10.522;2022-12-29T15:38:55;9.70;99.90
20811;DHT22;10566;52.928;10.522;2022-12-29T15:41:25;9.70;99.90
20811;DHT22;10566;52.928;10.522;2022-12-29T15:44:17;9.60;99.90
20811;DHT22;10566;52.928;10.522;2022-12-29T15:46:45;9.50;99.90
20811;DHT22;10566;52.928;10.522;2022-12-29T15:49:13;9.50;99.90
20811;DHT22;10566;52.928;10.522;2022-12-29T15:51:39;9.60;99.90
20811;DHT22;10566;52.928;10.522;2022-12-29T15:54:05;9.50;99.90
20811;DHT22;10566;52.928;10.522;2022-12-29T15:56:32;9.50;99.90
20811;DHT22;10566;52.928;10.522;2022-12-29T15:58:59;9.40;99.90
20811;DHT22;10566;52.928;10.522;2022-12-29T16:01:33;9.20;99.90
20811;DHT22;10566;52.928;10.522;2022-12-29T16:04:01;9.20;99.90
20811;DHT22;10566;52.928;10.522;2022-12-29T16:06:33;9.10;99.90
20811;DHT22;10566;52.928;10.522;2022-12-29T16:09:06;9.10;99.90
20811;DHT22;10566;52.928;10.522;2022-12-29T16:11:35;9.10;99.90
20811;DHT22;10566;52.928;10.522;2022-12-29T16:14:07;9.00;99.90
20811;DHT22;10566;52.928;10.522;2022-12-29T16:16:36;9.10;99.90
20811;DHT22;10566;52.928;10.522;2022-12-29T16:19:25;9.10;99.90
20811;DHT22;10566;52.928;10.522;2022-12-29T16:21:51;9.20;99.90
20811;DHT22;10566;52.928;10.522;2022-12-29T16:24:26;9.20;99.90
20811;DHT22;10566;52.928;10.522;2022-12-29T16:27:06;9.20;99.90
20811;DHT22;10566;52.928;10.522;2022-12-29T16:29:33;9.20;99.90
20811;DHT22;10566;52.928;10.522;2022-12-29T16:32:00;9.20;99.90
20811;DHT22;10566;52.928;10.522;2022-12-29T16:37:35;9.20;99.90
20811;DHT22;10566;52.928;10.522;2022-12-29T16:40:29;9.30;99.90
20811;DHT22;10566;52.928;10.522;2022-12-29T16:43:03;9.20;99.90
20811;DHT22;10566;52.928;10.522;2022-12-29T16:50:41;9.20;99.90
20811;DHT22;10566;52.928;10.522;2022-12-29T16:53:24;9.10;99.90
20811;DHT22;10566;52.928;10.522;2022-12-29T16:55:55;9.10;99.90
20811;DHT22;10566;52.928;10.522;2022-12-29T16:58:25;9.10;99.90
20811;DHT22;10566;52.928;10.522;2022-12-29T17:00:56;9.00;99.90
20811;DHT22;10566;52.928;10.522;2022-12-29T17:03:24;8.90;99.90
20811;DHT22;10566;52.928;10.522;2022-12-29T17:05:51;8.90;99.90
20811;DHT22;10566;52.928;10.522;2022-12-29T17:08:19;8.80;99.90
20811;DHT22;10566;52.928;10.522;2022-12-29T17:10:54;8.80;99.90
20811;DHT22;10566;52.928;10.522;2022-12-29T17:13:39;8.70;99.90
20811;DHT22;10566;52.928;10.522;2022-12-29T17:16:07;8.70;99.90
20811;DHT22;10566;52.928;10.522;2022-12-29T17:18:34;8.70;99.90
20811;DHT22;10566;52.928;10.522;2022-12-29T17:21:00;8.70;99.90
20811;DHT22;10566;52.928;10.522;2022-12-29T17:23:31;8.70;99.90
20811;DHT22;10566;52.928;10.522;2022-12-29T17:25:58;8.60;99.90
20811;DHT22;10566;52.928;10.522;2022-12-29T17:28:26;8.70;99.90
20811;DHT22;10566;52.928;10.522;2022-12-29T17:30:57;8.70;99.90
20811;DHT22;10566;52.928;10.522;2022-12-29T17:33:23;8.60;99.90
20811;DHT22;10566;52.928;10.522;2022-12-29T17:35:49;8.60;99.90
20811;DHT22;10566;52.928;10.522;2022-12-29T17:38:29;8.60;99.90
20811;DHT22;10566;52.928;10.522;2022-12-29T17:40:55;8.50;99.90
20811;DHT22;10566;52.928;10.522;2022-12-29T17:43:21;8.50;99.90
20811;DHT22;10566;52.928;10.522;2022-12-29T17:45:52;8.40;99.90
20811;DHT22;10566;52.928;10.522;2022-12-29T17:48:18;8.40;99.90
20811;DHT22;10566;52.928;10.522;2022-12-29T17:50:50;8.40;99.90
20811;DHT22;10566;52.928;10.522;2022-12-29T17:53:20;8.40;99.90
20811;DHT22;10566;52.928;10.522;2022-12-29T17:55:47;8.40;99.90
20811;DHT22;10566;52.928;10.522;2022-12-29T17:58:25;8.40;99.90
20811;DHT22;10566;52.928;10.522;2022-12-29T18:00:53;8.50;99.90
20811;DHT22;10566;52.928;10.522;2022-12-29T18:03:35;8.50;99.90
20811;DHT22;10566;52.928;10.522;2022-12-29T18:06:02;8.50;99.90
20811;DHT22;10566;52.928;10.522;2022-12-29T18:08:29;8.50;99.90
20811;DHT22;10566;52.928;10.522;2022-12-29T18:10:55;8.50;99.90
20811;DHT22;10566;52.928;10.522;2022-12-29T18:13:27;8.50;99.90
20811;DHT22;10566;52.928;10.522;2022-12-29T18:15:54;8.50;99.90
20811;DHT22;10566;52.928;10.522;2022-12-29T18:18:22;8.60;99.90
20811;DHT22;10566;52.928;10.522;2022-12-29T18:20:49;8.50;99.90
20811;DHT22;10566;52.928;10.522;2022-12-29T18:28:14;8.60;99.90
20811;DHT22;10566;52.928;10.522;2022-12-29T18:30:40;8.70;99.90
20811;DHT22;10566;52.928;10.522;2022-12-29T18:33:08;8.70;99.90
20811;DHT22;10566;52.928;10.522;2022-12-29T18:35:39;8.80;99.90
20811;DHT22;10566;52.928;10.522;2022-12-29T18:38:06;8.80;99.90
20811;DHT22;10566;52.928;10.522;2022-12-29T18:40:33;8.80;99.90
20811;DHT22;10566;52.928;10.522;2022-12-29T18:42:59;8.80;99.90
20811;DHT22;10566;52.928;10.522;2022-12-29T18:45:25;8.70;99.90
20811;DHT22;10566;52.928;10.522;2022-12-29T18:47:51;8.80;99.90
20811;DHT22;10566;52.928;10.522;2022-12-29T18:50:17;8.80;99.90
20811;DHT22;10566;52.928;10.522;2022-12-29T18:52:43;8.80;99.90
20811;DHT22;10566;52.928;10.522;2022-12-29T18:55:12;8.80;99.90
20811;DHT22;10566;52.928;10.522;2022-12-29T18:57:38;8.80;99.90
20811;DHT22;10566;52.928;10.522;2022-12-29T19:00:04;8.80;99.90
20811;DHT22;10566;52.928;10.522;2022-12-29T19:02:30;8.70;99.90
20811;DHT22;10566;52.928;10.522;2022-12-29T19:04:57;8.60;99.90
20811;DHT22;10566;52.928;10.522;2022-12-29T19:07:24;8.60;99.90
20811;DHT22;10566;52.928;10.522;2022-12-29T19:09:50;8.60;99.90
20811;DHT22;10566;52.928;10.522;2022-12-29T19:12:16;8.50;99.90
20811;DHT22;10566;52.928;10.522;2022-12-29T19:14:42;8.50;99.90
20811;DHT22;10566;52.928;10.522;2022-12-29T19:17:10;8.50;99.90
20811;DHT22;10566;52.928;10.522;2022-12-29T19:19:36;8.40;99.90
20811;DHT22;10566;52.928;10.522;2022-12-29T19:22:02;8.40;99.90
20811;DHT22;10566;52.928;10.522;2022-12-29T19:24:28;8.30;99.90
20811;DHT22;10566;52.928;10.522;2022-12-29T19:26:53;8.30;99.90
20811;DHT22;10566;52.928;10.522;2022-12-29T19:29:19;8.20;99.90
20811;DHT22;10566;52.928;10.522;2022-12-29T19:31:44;8.10;99.90
20811;DHT22;10566;52.928;10.522;2022-12-29T19:34:14;8.10;99.90
20811;DHT22;10566;52.928;10.522;2022-12-29T19:36:40;8.10;99.90
20811;DHT22;10566;52.928;10.522;2022-12-29T19:39:06;8.10;99.90
20811;DHT22;10566;52.928;10.522;2022-12-29T19:41:32;8.10;99.90
20811;DHT22;10566;52.928;10.522;2022-12-29T19:43:57;8.10;99.90
20811;DHT22;10566;52.928;10.522;2022-12-29T19:46:23;8.20;99.90
20811;DHT22;10566;52.928;10.522;2022-12-29T19:48:50;8.10;99.90
20811;DHT22;10566;52.928;10.522;2022-12-29T19:51:16;8.10;99.90
20811;DHT22;10566;52.928;10.522;2022-12-29T19:53:43;8.10;99.90
20811;DHT22;10566;52.928;10.522;2022-12-29T19:56:09;8.10;99.90
20811;DHT22;10566;52.928;10.522;2022-12-29T19:58:37;8.10;99.90
20811;DHT22;10566;52.928;10.522;2022-12-29T20:01:12;8.10;99.90
20811;DHT22;10566;52.928;10.522;2022-12-29T20:03:38;8.00;99.90
20811;DHT22;10566;52.928;10.522;2022-12-29T20:06:05;7.90;99.90
20811;DHT22;10566;52.928;10.522;2022-12-29T20:08:31;7.90;99.90
20811;DHT22;10566;52.928;10.522;2022-12-29T20:11:05;7.90;99.90
20811;DHT22;10566;52.928;10.522;2022-12-29T20:13:32;8.00;99.90
20811;DHT22;10566;52.928;10.522;2022-12-29T20:16:01;7.90;99.90
20811;DHT22;10566;52.928;10.522;2022-12-29T20:18:27;8.00;99.90
20811;DHT22;10566;52.928;10.522;2022-12-29T20:20:53;8.00;99.90
20811;DHT22;10566;52.928;10.522;2022-12-29T20:23:19;8.10;99.90
20811;DHT22;10566;52.928;10.522;2022-12-29T20:25:45;8.10;99.90
20811;DHT22;10566;52.928;10.522;2022-12-29T20:28:17;8.20;99.90
20811;DHT22;10566;52.928;10.522;2022-12-29T20:30:43;8.10;99.90
20811;DHT22;10566;52.928;10.522;2022-12-29T20:33:09;8.20;99.90
20811;DHT22;10566;52.928;10.522;2022-12-29T20:35:35;8.20;99.90
20811;DHT22;10566;52.928;10.522;2022-12-29T20:38:00;8.20;99.90
20811;DHT22;10566;52.928;10.522;2022-12-29T20:40:26;8.10;99.90
20811;DHT22;10566;52.928;10.522;2022-12-29T20:42:52;8.10;99.90
20811;DHT22;10566;52.928;10.522;2022-12-29T20:45:17;8.10;99.90
20811;DHT22;10566;52.928;10.522;2022-12-29T20:47:43;8.10;99.90
20811;DHT22;10566;52.928;10.522;2022-12-29T20:50:08;8.10;99.90
20811;DHT22;10566;52.928;10.522;2022-12-29T20:52:34;8.10;99.90
20811;DHT22;10566;52.928;10.522;2022-12-29T20:54:59;8.10;99.90
20811;DHT22;10566;52.928;10.522;2022-12-29T20:57:25;8.10;99.90
20811;DHT22;10566;52.928;10.522;2022-12-29T20:59:51;8.10;99.90
20811;DHT22;10566;52.928;10.522;2022-12-29T21:02:20;8.10;99.90
20811;DHT22;10566;52.928;10.522;2022-12-29T21:04:46;8.10;99.90
20811;DHT22;10566;52.928;10.522;2022-12-29T21:07:12;8.00;99.90
20811;DHT22;10566;52.928;10.522;2022-12-29T21:09:37;7.90;99.90
20811;DHT22;10566;52.928;10.522;2022-12-29T21:12:03;7.90;99.90
20811;DHT22;10566;52.928;10.522;2022-12-29T21:14:29;7.80;99.90
20811;DHT22;10566;52.928;10.522;2022-12-29T21:16:55;7.90;99.90
20811;DHT22;10566;52.928;10.522;2022-12-29T21:19:21;7.80;99.90
20811;DHT22;10566;52.928;10.522;2022-12-29T21:21:46;7.80;99.90
20811;DHT22;10566;52.928;10.522;2022-12-29T21:24:12;7.70;99.90
20811;DHT22;10566;52.928;10.522;2022-12-29T21:26:37;7.70;99.90
20811;DHT22;10566;52.928;10.522;2022-12-29T21:29:03;7.80;99.90
20811;DHT22;10566;52.928;10.522;2022-12-29T21:31:31;7.70;99.90
20811;DHT22;10566;52.928;10.522;2022-12-29T21:33:58;7.70;99.90
20811;DHT22;10566;52.928;10.522;2022-12-29T21:36:25;7.60;99.90
20811;DHT22;10566;52.928;10.522;2022-12-29T21:38:51;7.70;99.90
20811;DHT22;10566;52.928;10.522;2022-12-29T21:41:18;7.60;99.90
20811;DHT22;10566;52.928;10.522;2022-12-29T21:43:44;7.60;99.90
20811;DHT22;10566;52.928;10.522;2022-12-29T21:46:30;7.60;99.90
20811;DHT22;10566;52.928;10.522;2022-12-29T21:48:56;7.50;99.90
20811;DHT22;10566;52.928;10.522;2022-12-29T21:51:21;7.60;99.90
20811;DHT22;10566;52.928;10.522;2022-12-29T21:54:05;7.40;99.90
20811;DHT22;10566;52.928;10.522;2022-12-29T21:56:50;7.40;99.90
20811;DHT22;10566;52.928;10.522;2022-12-29T21:59:16;7.40;99.90
20811;DHT22;10566;52.928;10.522;2022-12-29T22:02:02;7.40;99.90
20811;DHT22;10566;52.928;10.522;2022-12-29T22:04:46;7.40;99.90
20811;DHT22;10566;52.928;10.522;2022-12-29T22:07:31;7.30;99.90
20811;DHT22;10566;52.928;10.522;2022-12-29T22:10:15;7.30;99.90
20811;DHT22;10566;52.928;10.522;2022-12-29T22:12:59;7.30;99.90
20811;DHT22;10566;52.928;10.522;2022-12-29T22:15:27;7.30;99.90
20811;DHT22;10566;52.928;10.522;2022-12-29T22:17:54;7.30;99.90
20811;DHT22;10566;52.928;10.522;2022-12-29T22:20:23;7.20;99.90
20811;DHT22;10566;52.928;10.522;2022-12-29T22:22:49;7.30;99.90
20811;DHT22;10566;52.928;10.522;2022-12-29T22:25:15;7.20;99.90
20811;DHT22;10566;52.928;10.522;2022-12-29T22:27:41;7.20;99.90
20811;DHT22;10566;52.928;10.522;2022-12-29T22:30:08;7.20;99.90
20811;DHT22;10566;52.928;10.522;2022-12-29T22:32:34;7.20;99.90
20811;DHT22;10566;52.928;10.522;2022-12-29T22:34:59;7.20;99.90
20811;DHT22;10566;52.928;10.522;2022-12-29T22:37:25;7.30;99.90
20811;DHT22;10566;52.928;10.522;2022-12-29T22:39:50;7.40;99.90
20811;DHT22;10566;52.928;10.522;2022-12-29T22:42:16;7.30;99.90
20811;DHT22;10566;52.928;10.522;2022-12-29T22:44:42;7.30;99.90
20811;DHT22;10566;52.928;10.522;2022-12-29T22:47:08;7.30;99.90
20811;DHT22;10566;52.928;10.522;2022-12-29T22:49:34;7.20;99.90
20811;DHT22;10566;52.928;10.522;2022-12-29T22:56:52;7.10;99.90
20811;DHT22;10566;52.928;10.522;2022-12-29T22:59:17;7.10;99.90
20811;DHT22;10566;52.928;10.522;2022-12-29T23:01:43;7.00;99.90
20811;DHT22;10566;52.928;10.522;2022-12-29T23:04:09;7.00;99.90
20811;DHT22;10566;52.928;10.522;2022-12-29T23:06:35;7.00;99.90
20811;DHT22;10566;52.928;10.522;2022-12-29T23:09:02;7.00;99.90
20811;DHT22;10566;52.928;10.522;2022-12-29T23:11:28;6.70;99.90
20811;DHT22;10566;52.928;10.522;2022-12-29T23:13:54;6.70;99.90
20811;DHT22;10566;52.928;10.522;2022-12-29T23:16:20;6.70;99.90
20811;DHT22;10566;52.928;10.522;2022-12-29T23:18:48;6.70;99.90
20811;DHT22;10566;52.928;10.522;2022-12-29T23:21:15;6.60;99.90
20811;DHT22;10566;52.928;10.522;2022-12-29T23:23:42;6.60;99.90